Historical Data

TheSutherlands

Weather at Humberside Airport

Current Weather from Humberside Airport

The information displayed on this page is from the METAR reports produced by Humberside Airport. Note that there are times when these are not generated.

Weather Report

Coded Weather Report: 2021/04/21 23:20 EGNJ 212320Z AUTO 00000KT 9999 NCD 00/M02 Q1027

Report issued: 2021/04/21 at 23:20 UTC

Weather: Code: AUTO
Wind: calm 0 knots (0 mph, 0 kph, Force 0)
Visibility: 10km or more
Weather: Code: NCD
Temperature: 0 C
Dewpoint: -2 C
Humidity: 86%
Pressure: 1027 hPa